Estación Meteorológica Peña el Pijo (Robertgarden) [ 04/19/21 04:19:17 CEST ]

Fecha Hora Presion(HPa) Temp (°C) Humedad % Rocio (°C) Viento ( m/s) Direccion Lluvia 1Hora(mm) Lluvia 24H(mm) LLuvia Total(mm)
2021-Apr-11 01:09:18 1004.000 7.2 95 6.4 - N     89.61
2021-Apr-11 02:09:28 1004.000 6.4 95 5.6 - N     89.61
2021-Apr-11 03:10:36 1003.700 5.5 95 4.8 - N     89.61
2021-Apr-11 04:09:50 1003.300 4.4 95 3.6 - N     89.61
2021-Apr-11 05:09:40 1003.100 3.8 95 3.0 - N     89.61
2021-Apr-11 06:10:08 1003.300 3.4 95 2.6 - N     89.61
2021-Apr-11 07:09:19 1003.300 2.7 95 1.9 - N     89.61
2021-Apr-11 08:09:53 1003.600 2.8 95 2.0 - N     89.61
2021-Apr-11 09:09:58 1004.000 11.0 89 9.2 - N     89.61
2021-Apr-11 10:09:36 1004.000 17.8 60 9.9 - N     89.61
2021-Apr-11 11:09:09 1004.500 14.8 56 6.1 - N     89.61
2021-Apr-11 12:09:20 1005.000 14.9 56 6.2 - N     89.61
2021-Apr-11 13:09:30 1004.900 18.4 47 6.8 - N     89.61
2021-Apr-11 14:09:53 1004.400 19.3 44 6.7 - N     89.61
2021-Apr-11 15:10:07 1004.400 16.4 50 6.0 - N     89.61
2021-Apr-11 16:09:24 1003.900 20.4 40 6.4 - N     89.61
2021-Apr-11 17:09:36 1004.000 18.1 44 5.6 - N     89.61
2021-Apr-11 18:09:36 1004.900 15.8 77 11.8 - N     89.61
2021-Apr-11 19:09:38 1006.000 13.9 67 7.8 - N     89.61
2021-Apr-11 20:09:16 1006.000 9.9 92 8.6 - N     89.61
2021-Apr-11 21:09:11 1006.700 8.8 93 7.8 - N     89.61
2021-Apr-11 22:09:24 1007.700 8.3 94 7.4 - N     89.61
2021-Apr-11 23:09:19 1008.100 8.3 94 7.4 - N     89.61

Temperatura Máxima:20°    Temperatura Mínima:
Presión Máxima:1008.100 Hpa    Presión Mínima:1003.100 Hpa


Volver